Time;durP1;ratioP1;P1;durP2;ratioP2;P2;SDS_P1;SDS_P2;PMS_P1;PMS_P2;Temp;Humidity;BMP_temperature;BMP_pressure;BME280_temperature;BME280_humidity;BME280_pressure;Samples;Min_cycle;Max_cycle;Signal;HPM_P1;HPM_P2
2022/08/26 00:00:23;;;;;;;3.60;1.85;;;;;;;22.22;83.59;99333.13;4937261;29;20099;-71
2022/08/26 00:02:52;;;;;;;1.63;1.52;;;;;;;22.20;83.64;99340.19;4936751;29;20490;-70
2022/08/26 00:05:21;;;;;;;2.35;2.00;;;;;;;22.17;83.95;99324.75;4936868;29;20039;-71
2022/08/26 00:07:50;;;;;;;;;;;;;;;22.21;83.75;99331.47;4937153;29;20054;-70
2022/08/26 00:10:21;;;;;;;1.73;1.50;;;;;;;22.21;84.00;99336.69;4937154;29;19922;-71
2022/08/26 00:12:53;;;;;;;2.22;1.23;;;;;;;22.22;84.08;99337.53;4936639;29;20048;-70
2022/08/26 00:15:24;;;;;;;1.55;1.30;;;;;;;22.23;84.23;99340.03;4936653;29;20047;-71
2022/08/26 00:17:53;;;;;;;2.58;1.42;;;;;;;22.25;84.24;99332.13;4936969;29;20058;-70
2022/08/26 00:20:27;;;;;;;2.42;1.90;;;;;;;22.27;84.25;99335.47;4936913;29;20048;-70
2022/08/26 00:22:56;;;;;;;2.42;2.10;;;;;;;22.26;84.41;99331.22;4936122;29;20048;-70
2022/08/26 00:25:28;;;;;;;1.65;1.30;;;;;;;22.28;84.28;99332.81;4936111;29;20044;-70
2022/08/26 00:27:57;;;;;;;1.60;1.35;;;;;;;22.31;84.42;99337.03;4936831;29;20048;-70
2022/08/26 00:30:29;;;;;;;1.80;1.20;;;;;;;22.27;84.18;99331.13;4937297;29;20043;-70
2022/08/26 00:32:58;;;;;;;1.17;1.08;;;;;;;22.27;84.26;99330.28;4936404;29;20079;-70
2022/08/26 00:35:27;;;;;;;4.75;3.05;;;;;;;22.26;84.22;99329.47;4936436;29;20139;-70
2022/08/26 00:38:02;;;;;;;5.30;2.22;;;;;;;22.23;84.27;99332.22;4936433;29;20047;-71
2022/08/26 00:40:36;;;;;;;1.73;1.60;;;;;;;22.21;84.30;99331.47;4936699;29;20054;-70
2022/08/26 00:43:05;;;;;;;1.10;1.00;;;;;;;22.18;84.46;99331.63;4936301;29;20075;-70
2022/08/26 00:45:43;;;;;;;1.05;0.98;;;;;;;22.20;84.31;99339.34;4936903;29;20056;-71
2022/08/26 00:48:16;;;;;;;1.15;1.00;;;;;;;22.17;84.54;99329.13;4936313;29;20055;-70
2022/08/26 00:50:53;;;;;;;1.30;1.20;;;;;;;22.19;84.50;99333.31;4936591;29;20134;-70
2022/08/26 00:53:23;;;;;;;2.00;1.48;;;;;;;22.16;84.52;99328.28;4936773;29;20143;-70
2022/08/26 00:56:01;;;;;;;2.58;1.30;;;;;;;22.18;84.79;99329.03;4936068;29;20048;-70
2022/08/26 00:58:33;;;;;;;2.35;1.73;;;;;;;22.19;84.58;99325.53;4936142;29;20107;-70
2022/08/26 01:01:02;;;;;;;3.22;1.50;;;;;;;22.17;84.83;99329.13;4936796;29;20438;-70
2022/08/26 01:03:34;;;;;;;2.45;2.17;;;;;;;22.19;84.69;99325.53;4936224;29;20036;-70
2022/08/26 01:06:05;;;;;;;1.23;1.13;;;;;;;22.19;84.75;99317.72;4936129;29;20134;-70
2022/08/26 01:08:41;;;;;;;2.67;1.73;;;;;;;22.20;84.74;99321.97;4936151;29;20405;-70
2022/08/26 01:11:11;;;;;;;;;;;;;;;22.19;84.70;99322.94;4936775;29;20072;-70
2022/08/26 01:13:41;;;;;;;1.67;1.20;;;;;;;22.19;84.45;99333.31;4936401;29;20013;-70
2022/08/26 01:16:13;;;;;;;1.98;0.90;;;;;;;22.17;84.48;99327.34;4936008;29;20090;-70
2022/08/26 01:18:43;;;;;;;1.17;1.08;;;;;;;22.12;84.66;99331.97;4936023;29;20131;-69
2022/08/26 01:21:21;;;;;;;1.20;1.08;;;;;;;22.08;84.57;99327.84;4935990;29;20058;-71
2022/08/26 01:23:53;;;;;;;2.95;2.67;;;;;;;22.06;84.73;99321.88;4935939;29;20163;-70
2022/08/26 01:26:29;;;;;;;2.40;2.08;;;;;;;22.05;84.66;99322.81;4936229;29;20054;-70
2022/08/26 01:29:03;;;;;;;7.57;1.23;;;;;;;22.05;84.85;99309.81;4936303;29;20134;-70
2022/08/26 01:31:40;;;;;;;5.43;2.58;;;;;;;22.04;84.56;99318.53;4936520;29;20044;-70
2022/08/26 01:34:17;;;;;;;4.60;1.77;;;;;;;22.01;84.48;99313.50;4935912;29;20048;-70
2022/08/26 01:36:49;;;;;;;1.45;1.30;;;;;;;22.01;84.70;99313.50;4939257;29;20079;-70
2022/08/26 01:39:21;;;;;;;3.67;2.33;;;;;;;21.99;84.52;99316.19;4939810;29;20039;-70
2022/08/26 01:41:53;;;;;;;9.93;1.20;;;;;;;22.01;84.52;99321.28;4939695;29;20413;-70
2022/08/26 01:44:27;;;;;;;1.52;1.42;;;;;;;21.99;84.74;99315.34;4939352;29;20082;-71
2022/08/26 01:46:59;;;;;;;3.13;1.58;;;;;;;21.98;84.67;99308.44;4939314;29;20079;-70
2022/08/26 01:49:29;;;;;;;1.65;1.35;;;;;;;21.95;84.77;99313.81;4939307;29;20077;-70
2022/08/26 01:52:04;;;;;;;3.25;2.55;;;;;;;21.95;84.86;99303.44;4939499;29;20047;-71
2022/08/26 01:54:35;;;;;;;2.03;1.83;;;;;;;21.93;84.65;99315.66;4940065;29;20046;-69
2022/08/26 01:57:06;;;;;;;2.47;1.48;;;;;;;21.91;84.74;99313.13;4938873;29;20056;-70
2022/08/26 01:59:35;;;;;;;1.00;0.90;;;;;;;21.91;84.79;99307.94;4939654;29;20048;-69
2022/08/26 02:02:04;;;;;;;2.15;1.73;;;;;;;21.90;84.67;99305.44;4939029;29;20044;-69
2022/08/26 02:04:37;;;;;;;2.28;1.98;;;;;;;21.87;84.77;99308.19;4938920;29;20498;-70
2022/08/26 02:07:09;;;;;;;1.58;1.48;;;;;;;21.88;85.00;99302.91;4939210;29;20068;-70
2022/08/26 02:09:41;;;;;;;1.58;1.48;;;;;;;21.90;84.86;99308.88;4938920;29;20056;-69
2022/08/26 02:12:15;;;;;;;7.25;3.25;;;;;;;21.90;84.86;99305.44;4938898;29;20043;-69
2022/08/26 02:14:50;;;;;;;6.97;3.38;;;;;;;21.88;84.89;99304.69;4938825;29;20095;-70
2022/08/26 02:17:23;;;;;;;0.57;0.57;;;;;;;21.83;84.79;99310.09;4939005;29;20075;-70
2022/08/26 02:19:52;;;;;;;3.53;2.70;;;;;;;21.82;84.97;99307.56;4938741;29;20051;-70
2022/08/26 02:22:23;;;;;;;3.47;1.73;;;;;;;21.82;85.19;99302.34;4938936;29;20123;-69
2022/08/26 02:24:56;;;;;;;6.43;2.25;;;;;;;21.81;85.10;99301.50;4938593;29;20047;-70
2022/08/26 02:27:30;;;;;;;1.15;1.05;;;;;;;21.81;85.03;99305.88;4938532;29;20131;-69
2022/08/26 02:30:07;;;;;;;1.27;1.10;;;;;;;21.81;85.14;99300.69;4938574;29;20084;-70
2022/08/26 02:32:35;;;;;;;2.40;1.48;;;;;;;21.80;85.13;99309.38;4937357;29;20056;-69
2022/08/26 02:35:08;;;;;;;0.85;0.75;;;;;;;21.79;85.01;99308.53;4938778;29;20051;-69
2022/08/26 02:37:37;;;;;;;3.50;2.20;;;;;;;21.78;85.16;99311.25;4938582;29;20078;-70
2022/08/26 02:40:14;;;;;;;1.10;1.00;;;;;;;21.78;85.01;99303.44;4938617;29;20056;-70
2022/08/26 02:42:43;;;;;;;2.25;1.55;;;;;;;21.78;84.91;99303.44;4938292;29;20550;-69
2022/08/26 02:45:11;;;;;;;2.15;1.83;;;;;;;21.77;85.15;99299.16;4938496;29;20454;-70
2022/08/26 02:47:44;;;;;;;2.17;1.70;;;;;;;21.77;85.06;99293.94;4937642;29;20047;-70
2022/08/26 02:50:14;;;;;;;;;;;;;;;21.75;85.11;99301.00;4938591;29;20095;-69
2022/08/26 02:52:44;;;;;;;8.00;1.70;;;;;;;21.74;85.11;99299.34;4938507;29;19933;-70
2022/08/26 02:55:14;;;;;;;2.28;1.10;;;;;;;21.73;85.27;99300.25;4938032;29;20486;-69
2022/08/26 02:57:43;;;;;;;1.92;1.80;;;;;;;21.69;85.08;99299.53;4937658;29;20047;-70
2022/08/26 03:00:14;;;;;;;2.83;1.70;;;;;;;21.70;85.17;99297.78;4938350;29;20122;-70
2022/08/26 03:02:43;;;;;;;4.25;1.88;;;;;;;21.71;85.17;99294.28;4938562;29;20305;-70
2022/08/26 03:05:12;;;;;;;1.98;1.77;;;;;;;21.68;85.19;99299.63;4938102;29;20138;-69
2022/08/26 03:07:43;;;;;;;1.73;1.45;;;;;;;21.65;85.18;99284.19;4938388;29;20051;-70
2022/08/26 03:10:15;;;;;;;4.82;2.33;;;;;;;21.70;85.12;99292.59;4937871;29;20054;-69
2022/08/26 03:12:45;;;;;;;3.22;1.73;;;;;;;21.66;85.20;99286.75;4937865;29;20047;-70
2022/08/26 03:15:17;;;;;;;1.92;1.25;;;;;;;21.64;85.33;99287.75;4937978;29;20047;-69
2022/08/26 03:17:48;;;;;;;1.58;1.25;;;;;;;21.59;85.23;99281.94;4937906;29;20454;-69
2022/08/26 03:20:18;;;;;;;1.95;1.35;;;;;;;21.59;85.36;99284.53;4937888;29;20056;-69
2022/08/26 03:22:50;;;;;;;2.40;1.48;;;;;;;21.55;85.34;99288.19;4937845;29;20513;-70
2022/08/26 03:25:21;;;;;;;1.33;1.23;;;;;;;21.55;85.45;99288.19;4937777;29;20123;-69
2022/08/26 03:27:51;;;;;;;8.07;2.88;;;;;;;21.56;85.49;99287.28;4937461;29;20054;-70
2022/08/26 03:33:02;;;;;;;0.90;0.85;;;;;;;21.58;85.44;99277.66;4937680;29;20062;-69
2022/08/26 03:35:32;;;;;;;1.00;0.90;;;;;;;21.59;85.24;99275.00;4937278;29;20044;-70
2022/08/26 03:38:02;;;;;;;2.30;1.88;;;;;;;21.57;85.36;99281.19;4937281;29;20138;-70
2022/08/26 03:40:32;;;;;;;6.63;2.72;;;;;;;21.52;85.28;99270.19;4937483;29;20048;-70
2022/08/26 03:43:02;;;;;;;2.60;1.67;;;;;;;21.51;85.28;99271.09;4937237;29;20051;-69
2022/08/26 03:45:30;;;;;;;3.85;1.60;;;;;;;21.53;85.27;99274.44;4937156;29;20087;-70
2022/08/26 03:48:00;;;;;;;1.48;1.15;;;;;;;21.53;85.25;99274.44;4937064;29;20040;-69
2022/08/26 03:50:31;;;;;;;3.30;2.40;;;;;;;21.52;85.40;99272.78;4937339;29;20134;-70
2022/08/26 03:53:02;;;;;;;1.73;1.48;;;;;;;21.51;85.23;99271.09;4937351;29;20044;-70
2022/08/26 03:55:36;;;;;;;3.97;1.88;;;;;;;21.50;85.25;99275.44;4937312;29;20052;-69
2022/08/26 03:58:06;;;;;;;1.05;0.82;;;;;;;21.51;85.25;99271.09;4936776;29;20138;-70
2022/08/26 04:00:35;;;;;;;2.13;1.55;;;;;;;21.50;85.13;99269.44;4937133;29;20044;-69
2022/08/26 04:03:04;;;;;;;1.45;1.35;;;;;;;21.50;85.17;99272.03;4937464;29;20036;-70
2022/08/26 04:05:38;;;;;;;2.30;1.50;;;;;;;21.50;85.14;99270.25;4936853;29;20044;-69
2022/08/26 04:08:07;;;;;;;3.33;2.28;;;;;;;21.50;85.35;99270.25;4936757;29;20069;-69
2022/08/26 04:10:39;;;;;;;3.53;2.42;;;;;;;21.51;85.31;99273.69;4936689;29;20052;-70
2022/08/26 04:13:08;;;;;;;2.40;1.98;;;;;;;21.49;85.34;99272.94;4936749;29;20139;-70
2022/08/26 04:15:38;;;;;;;1.33;1.23;;;;;;;21.48;85.34;99271.25;4936888;29;20397;-71
2022/08/26 04:18:07;;;;;;;3.20;2.13;;;;;;;21.49;85.45;99267.75;4936940;29;20101;-71
2022/08/26 04:20:36;;;;;;;2.78;1.40;;;;;;;21.50;85.47;99274.63;4936662;29;20054;-69
2022/08/26 04:23:04;;;;;;;3.97;1.60;;;;;;;21.50;85.36;99275.44;4936856;29;20052;-70
2022/08/26 04:25:33;;;;;;;1.40;1.30;;;;;;;21.53;85.42;99279.63;4936487;29;20048;-69
2022/08/26 04:28:04;;;;;;;1.27;1.17;;;;;;;21.54;85.52;99282.19;4935502;29;20094;-69
2022/08/26 04:30:37;;;;;;;1.83;1.48;;;;;;;21.56;85.43;99271.69;4936723;29;20451;-69
2022/08/26 04:33:07;;;;;;;1.45;1.30;;;;;;;21.54;85.18;99274.38;4936523;29;20141;-71
2022/08/26 04:35:42;;;;;;;1.90;1.63;;;;;;;21.54;85.22;99277.00;4936679;29;20406;-70
2022/08/26 04:38:11;;;;;;;1.27;1.17;;;;;;;21.56;85.32;99271.69;4936752;29;20078;-71
2022/08/26 04:40:43;;;;;;;1.43;1.30;;;;;;;21.60;85.40;99273.22;4936599;29;20067;-70
2022/08/26 04:43:16;;;;;;;2.33;1.65;;;;;;;21.63;85.37;99273.91;4936686;29;20044;-70
2022/08/26 04:45:45;;;;;;;1.92;1.38;;;;;;;21.65;85.35;99279.00;4936286;29;20048;-71
2022/08/26 04:48:14;;;;;;;1.37;1.07;;;;;;;21.69;85.37;99285.75;4936354;29;20080;-71
2022/08/26 04:50:44;;;;;;;1.25;1.15;;;;;;;21.72;85.27;99280.34;4936318;29;20075;-69
2022/08/26 04:53:17;;;;;;;10.10;1.55;;;;;;;21.76;85.40;99281.91;4936249;29;20110;-70
2022/08/26 04:55:46;;;;;;;1.38;1.23;;;;;;;21.81;85.45;99282.50;4936195;29;20067;-70
2022/08/26 04:58:20;;;;;;;0.95;0.80;;;;;;;21.87;85.12;99282.19;4935963;29;20048;-71
2022/08/26 05:00:51;;;;;;;2.58;1.30;;;;;;;21.89;84.82;99283.78;4936494;29;20069;-70
2022/08/26 05:03:22;;;;;;;2.17;1.30;;;;;;;21.86;84.71;99278.75;4936424;29;20506;-71
2022/08/26 05:05:51;;;;;;;1.73;1.42;;;;;;;21.92;84.84;99283.63;4935982;29;20052;-71
2022/08/26 05:08:22;;;;;;;4.10;3.28;;;;;;;22.00;84.72;99280.63;4936407;29;20095;-71
2022/08/26 05:10:54;;;;;;;0.95;0.88;;;;;;;22.06;84.69;99279.44;4938569;29;20036;-71
2022/08/26 05:13:27;;;;;;;2.05;1.85;;;;;;;22.10;84.39;99292.19;4940189;29;20043;-71
2022/08/26 05:15:56;;;;;;;4.30;2.95;;;;;;;22.15;84.40;99281.56;4940175;29;20043;-71
2022/08/26 05:18:28;;;;;;;8.00;2.85;;;;;;;22.20;84.10;99282.97;4939862;29;20099;-71
2022/08/26 05:20:57;;;;;;;3.97;2.67;;;;;;;22.28;84.08;99280.81;4939739;29;20124;-71
2022/08/26 05:23:26;;;;;;;2.78;2.03;;;;;;;22.34;84.04;99285.66;4939426;29;20066;-71
2022/08/26 05:25:55;;;;;;;0.90;0.88;;;;;;;22.43;83.72;99279.97;4939495;29;20036;-71
2022/08/26 05:28:29;;;;;;;1.95;1.33;;;;;;;22.51;83.61;99290.78;4939597;29;20082;-71
2022/08/26 05:30:59;;;;;;;2.25;1.48;;;;;;;22.61;83.19;99289.38;4939888;29;20388;-71
2022/08/26 05:33:28;;;;;;;1.15;1.02;;;;;;;22.66;82.89;99289.97;4939607;29;20054;-70
2022/08/26 05:35:57;;;;;;;3.35;1.98;;;;;;;22.74;82.66;99283.50;4939414;29;20565;-70
2022/08/26 05:38:25;;;;;;;1.52;1.42;;;;;;;22.83;82.44;99283.81;4939469;29;20103;-70
2022/08/26 05:40:58;;;;;;;1.30;1.20;;;;;;;22.91;81.99;99280.78;4939351;29;20111;-72
2022/08/26 05:43:29;;;;;;;1.65;1.50;;;;;;;22.98;81.72;99287.31;4939405;29;20501;-72
2022/08/26 05:46:06;;;;;;;1.45;1.33;;;;;;;23.06;81.15;99282.50;4939518;29;20081;-71
2022/08/26 05:48:35;;;;;;;2.25;1.35;;;;;;;23.10;80.67;99281.38;4939291;29;20043;-72
2022/08/26 05:51:07;;;;;;;23.55;1.80;;;;;;;23.21;80.41;99285.03;4939262;29;20063;-71
2022/08/26 05:53:38;;;;;;;2.75;1.52;;;;;;;23.29;80.04;99292.41;4939590;29;20051;-71
2022/08/26 05:56:12;;;;;;;2.10;1.60;;;;;;;23.35;79.48;99292.06;4938259;29;20043;-71
2022/08/26 05:58:42;;;;;;;2.13;1.75;;;;;;;23.43;79.44;99289.84;4938887;29;20490;-70
2022/08/26 06:01:18;;;;;;;1.02;0.93;;;;;;;23.53;79.16;99291.00;4938139;29;20126;-71
2022/08/26 06:03:51;;;;;;;5.97;2.60;;;;;;;23.66;78.80;99293.72;4939158;29;20391;-71
2022/08/26 06:06:22;;;;;;;2.15;1.77;;;;;;;23.74;78.22;99294.91;4938775;29;20044;-70
2022/08/26 06:08:57;;;;;;;0.73;0.73;;;;;;;23.78;77.77;99285.97;4938870;29;20058;-71
2022/08/26 06:11:31;;;;;;;5.15;2.75;;;;;;;23.90;77.62;99293.03;4938870;29;20503;-71
2022/08/26 06:14:02;;;;;;;1.25;1.15;;;;;;;23.99;77.40;99284.63;4921976;29;20052;-71
2022/08/26 06:16:33;;;;;;;2.95;1.90;;;;;;;24.05;76.54;99293.00;4939023;29;20047;-71
2022/08/26 06:19:04;;;;;;;5.05;2.50;;;;;;;24.08;76.08;99279.81;4938416;29;20044;-72
2022/08/26 06:21:40;;;;;;;1.65;1.50;;;;;;;24.16;75.83;99293.25;4937196;29;20111;-71
2022/08/26 06:26:57;;;;;;;1.88;1.67;;;;;;;24.32;75.65;99280.91;4938525;29;20421;-71
2022/08/26 06:29:28;;;;;;;4.25;2.17;;;;;;;24.39;75.32;99282.19;4938594;29;20046;-71
2022/08/26 06:31:57;;;;;;;2.75;1.85;;;;;;;24.48;75.01;99286.81;4938526;29;20553;-71
2022/08/26 06:34:28;;;;;;;3.40;1.92;;;;;;;24.55;74.60;99282.88;4938335;29;20039;-71
2022/08/26 06:37:02;;;;;;;1.50;1.40;;;;;;;24.61;74.43;99285.09;4938428;29;20043;-71
2022/08/26 06:39:31;;;;;;;3.80;1.88;;;;;;;24.66;74.09;99293.47;4938772;29;20047;-71
2022/08/26 06:42:01;;;;;;;4.32;1.88;;;;;;;24.69;73.83;99290.66;4938639;29;20117;-71
2022/08/26 06:44:35;;;;;;;6.60;3.88;;;;;;;24.71;73.38;99287.97;4938544;29;20056;-71
2022/08/26 06:47:08;;;;;;;1.27;1.17;;;;;;;24.77;73.09;99287.59;4938446;29;20443;-71
2022/08/26 06:49:37;;;;;;;1.17;1.08;;;;;;;24.82;72.83;99286.34;4939094;28;20123;-71
2022/08/26 06:52:07;;;;;;;0.70;0.70;;;;;;;24.90;73.05;99284.09;4937978;29;20048;-70
2022/08/26 06:54:35;;;;;;;2.22;1.70;;;;;;;24.96;72.61;99277.63;4938086;29;20063;-71
2022/08/26 06:57:06;;;;;;;1.98;1.77;;;;;;;25.03;72.16;99282.34;4937927;29;20451;-71
2022/08/26 06:59:36;;;;;;;1.93;1.63;;;;;;;25.10;72.20;99286.22;4938152;29;20410;-71
2022/08/26 07:02:05;;;;;;;4.03;2.25;;;;;;;25.23;71.76;99281.00;4936486;29;20055;-71
2022/08/26 07:04:35;;;;;;;11.50;2.42;;;;;;;25.30;71.39;99271.81;4958276;28;20082;-71
2022/08/26 07:07:04;;;;;;;1.67;1.45;;;;;;;25.45;71.46;99285.66;4976189;28;20131;-71
2022/08/26 07:09:36;;;;;;;1.77;1.55;;;;;;;25.53;70.92;99276.34;4976494;28;20089;-71
2022/08/26 07:12:05;;;;;;;2.20;1.63;;;;;;;25.61;70.49;99275.81;4959351;28;20055;-70
2022/08/26 07:14:36;;;;;;;3.22;2.60;;;;;;;25.68;69.44;99277.06;4956670;29;20047;-68
2022/08/26 07:17:06;;;;;;;1.08;0.98;;;;;;;25.72;69.37;99276.75;4956724;28;20046;-71
2022/08/26 07:19:41;;;;;;;1.70;1.45;;;;;;;25.78;69.23;99278.97;4956708;28;20055;-71
2022/08/26 07:22:09;;;;;;;2.80;1.50;;;;;;;25.85;69.37;99268.91;4956614;28;20086;-72
2022/08/26 07:24:40;;;;;;;0.85;0.85;;;;;;;25.96;68.96;99276.84;4956433;29;20049;-72
2022/08/26 07:27:12;;;;;;;2.42;1.60;;;;;;;26.12;68.43;99272.25;4956417;29;20098;-70
2022/08/26 07:29:43;;;;;;;2.35;1.40;;;;;;;26.24;68.29;99275.75;4956397;29;20053;-71
2022/08/26 07:32:14;;;;;;;1.15;1.00;;;;;;;26.35;67.82;99274.03;4956553;28;20526;-71
2022/08/26 07:34:44;;;;;;;1.35;1.10;;;;;;;26.44;67.56;99273.38;4956434;28;20154;-71
2022/08/26 07:37:13;;;;;;;20.95;1.75;;;;;;;26.52;67.25;99272.81;4956007;28;20047;-71
2022/08/26 07:39:43;;;;;;;2.08;1.30;;;;;;;26.59;66.58;99271.44;4953825;29;20390;-72
2022/08/26 07:42:14;;;;;;;2.97;2.15;;;;;;;26.70;66.77;99265.44;4950911;29;20516;-73
2022/08/26 07:44:44;;;;;;;3.28;2.05;;;;;;;26.82;66.62;99267.19;4956462;28;20078;-71
2022/08/26 07:47:13;;;;;;;3.97;1.73;;;;;;;26.90;65.77;99275.31;4956470;28;20048;-71
2022/08/26 07:49:55;;;;;;;1.17;1.08;;;;;;;26.97;65.41;99273.91;4956462;29;20445;-71
2022/08/26 07:52:25;;;;;;;5.05;1.70;;;;;;;27.04;64.60;99272.50;4956471;28;20058;-70
2022/08/26 07:54:56;;;;;;;1.67;1.58;;;;;;;27.05;64.59;99275.00;4956774;28;20059;-71
2022/08/26 07:57:26;;;;;;;6.90;1.75;;;;;;;27.18;65.05;99270.53;4955876;28;20063;-71
2022/08/26 07:59:56;;;;;;;1.58;1.45;;;;;;;27.28;64.35;99270.66;4956031;28;20102;-71
2022/08/26 08:02:27;;;;;;;1.65;1.40;;;;;;;27.33;64.05;99263.25;4956032;29;20043;-72
2022/08/26 08:04:57;;;;;;;1.55;1.15;;;;;;;27.43;63.85;99264.25;4956256;29;20055;-71
2022/08/26 08:07:27;;;;;;;1.17;1.08;;;;;;;27.50;64.11;99264.66;4955920;29;20047;-71
2022/08/26 08:10:16;;;;;;;2.65;1.88;;;;;;;27.61;63.92;99257.63;4955894;28;20466;-71
2022/08/26 08:12:49;;;;;;;4.47;2.20;;;;;;;27.70;63.71;99272.66;4956202;28;20051;-72
2022/08/26 08:15:23;;;;;;;2.67;1.80;;;;;;;27.77;63.29;99263.34;4952475;28;20035;-71
2022/08/26 08:17:52;;;;;;;1.40;1.30;;;;;;;27.83;63.45;99262.84;4954010;29;20047;-72
2022/08/26 08:20:27;;;;;;;1.27;1.17;;;;;;;27.92;62.11;99256.91;4955306;29;20051;-73
2022/08/26 08:22:56;;;;;;;2.13;1.92;;;;;;;27.96;62.43;99251.38;4953989;28;20101;-72
2022/08/26 08:25:25;;;;;;;2.00;1.55;;;;;;;28.05;62.08;99256.78;4955922;29;20048;-72
2022/08/26 08:27:53;;;;;;;8.90;2.08;;;;;;;28.09;61.66;99257.38;4949306;29;20130;-73
2022/08/26 08:30:26;;;;;;;1.98;1.38;;;;;;;28.19;62.16;99247.84;4948903;28;20053;-72
2022/08/26 08:32:56;;;;;;;1.45;1.15;;;;;;;28.28;61.61;99241.84;4953960;29;20139;-73
2022/08/26 08:35:25;;;;;;;1.52;1.42;;;;;;;28.39;61.44;99244.41;4955438;29;20043;-73
2022/08/26 08:37:55;;;;;;;;;;;;;;;28.50;61.25;99247.88;4956239;29;20043;-72
2022/08/26 08:40:26;;;;;;;4.82;2.08;;;;;;;28.63;60.94;99239.84;4956053;29;19923;-72
2022/08/26 08:43:02;;;;;;;2.28;1.95;;;;;;;28.72;60.33;99239.09;4955784;28;20058;-72
2022/08/26 08:45:38;;;;;;;1.95;1.60;;;;;;;28.81;59.84;99240.97;4954748;28;20135;-71
2022/08/26 08:48:16;;;;;;;1.58;1.48;;;;;;;28.84;59.18;99245.13;4955394;29;20035;-71
2022/08/26 08:50:49;;;;;;;2.22;1.83;;;;;;;28.92;58.49;99235.66;4955479;29;20055;-72
2022/08/26 08:53:21;;;;;;;6.68;1.85;;;;;;;29.08;57.66;99240.47;4952932;29;20110;-72
2022/08/26 08:56:04;;;;;;;2.53;2.08;;;;;;;29.13;57.38;99231.22;4944562;29;20043;-73
2022/08/26 08:58:46;;;;;;;1.80;1.70;;;;;;;29.25;57.65;99233.81;4935983;29;20102;-72
2022/08/26 09:01:28;;;;;;;1.48;1.23;;;;;;;29.33;56.89;99234.00;4936459;29;20048;-72
2022/08/26 09:04:23;;;;;;;1.10;1.00;;;;;;;29.46;57.48;99232.00;4947646;29;20054;-71
2022/08/26 09:06:55;;;;;;;1.23;0.90;;;;;;;29.56;56.38;99233.69;4955155;28;20055;-71
2022/08/26 09:09:32;;;;;;;3.65;1.65;;;;;;;29.55;55.51;99225.94;4955506;28;20089;-72
2022/08/26 09:12:02;;;;;;;1.85;1.42;;;;;;;29.53;53.54;99227.88;4951376;28;20052;-72
2022/08/26 09:14:31;;;;;;;1.90;1.25;;;;;;;29.58;53.39;99217.78;4945017;29;20055;-72
2022/08/26 09:17:09;;;;;;;1.20;1.05;;;;;;;29.73;53.22;99224.38;4936471;29;20502;-72
2022/08/26 09:19:43;;;;;;;2.53;1.90;;;;;;;29.80;53.32;99221.09;4955126;29;20374;-72
2022/08/26 09:22:29;;;;;;;6.65;1.45;;;;;;;29.85;53.46;99215.41;4955448;29;20040;-72
2022/08/26 09:24:58;;;;;;;1.10;1.00;;;;;;;29.87;53.47;99216.13;4955452;29;20047;-71
2022/08/26 09:27:42;;;;;;;0.85;0.77;;;;;;;29.85;53.74;99212.78;4954029;29;20090;-72
2022/08/26 09:30:14;;;;;;;5.43;2.55;;;;;;;29.98;54.25;99216.03;4944143;29;20139;-71
2022/08/26 09:32:58;;;;;;;1.73;1.42;;;;;;;30.09;53.82;99215.91;4936733;29;20367;-72
2022/08/26 09:35:30;;;;;;;4.50;1.67;;;;;;;30.19;52.80;99211.47;4935986;29;20127;-72
2022/08/26 09:37:59;;;;;;;1.67;1.55;;;;;;;30.22;52.70;99205.94;4949972;28;20159;-74
2022/08/26 09:40:30;;;;;;;;;;;;;;;30.29;53.02;99212.34;4946492;29;20047;-73
2022/08/26 09:43:10;;;;;;;0.90;0.73;;;;;;;30.29;51.63;99209.69;4935895;29;19923;-71
2022/08/26 09:45:41;;;;;;;1.77;1.30;;;;;;;30.40;51.75;99216.69;4953991;29;20051;-72
2022/08/26 09:48:31;;;;;;;3.08;1.27;;;;;;;30.45;51.59;99212.66;4937014;29;20043;-72
2022/08/26 09:51:07;;;;;;;2.30;1.98;;;;;;;30.56;51.45;99208.22;4952105;29;20043;-72
2022/08/26 09:53:49;;;;;;;1.65;1.48;;;;;;;30.62;50.81;99202.41;4953739;28;20134;-74
2022/08/26 09:56:30;;;;;;;0.80;0.80;;;;;;;30.71;49.75;99204.19;4946843;29;20044;-70
2022/08/26 09:59:00;;;;;;;0.90;0.90;;;;;;;30.80;49.69;99195.44;4958264;28;20498;-71
2022/08/26 10:01:32;;;;;;;2.03;1.25;;;;;;;30.86;49.81;99197.50;4958135;29;20074;-71
2022/08/26 10:04:10;;;;;;;0.88;0.82;;;;;;;30.92;49.91;99199.63;4957392;29;20055;-73
2022/08/26 10:06:42;;;;;;;1.63;1.45;;;;;;;30.95;49.35;99209.91;4956378;28;20464;-72
2022/08/26 10:09:17;;;;;;;5.78;2.25;;;;;;;31.09;48.44;99197.09;4948904;28;20051;-72
2022/08/26 10:11:51;;;;;;;9.75;1.50;;;;;;;31.19;49.20;99197.06;4958375;29;20054;-71
2022/08/26 10:14:26;;;;;;;2.70;1.60;;;;;;;31.33;49.86;99196.63;4956821;29;20105;-73
2022/08/26 10:17:02;;;;;;;0.93;0.70;;;;;;;31.42;49.06;99193.09;4958154;29;20051;-72
2022/08/26 10:19:40;;;;;;;4.50;1.70;;;;;;;31.49;48.85;99188.94;4941416;29;20047;-72
2022/08/26 10:22:34;;;;;;;1.42;0.90;;;;;;;31.51;47.86;99191.41;4938928;29;20050;-71
2022/08/26 10:25:07;;;;;;;1.10;1.00;;;;;;;31.52;47.68;99188.66;4941336;29;20051;-71
2022/08/26 10:27:46;;;;;;;0.80;0.77;;;;;;;31.57;48.26;99186.41;4947145;29;20336;-71
2022/08/26 10:30:23;;;;;;;1.27;1.17;;;;;;;31.56;47.77;99189.19;4938607;29;20083;-71
2022/08/26 10:32:58;;;;;;;1.27;1.17;;;;;;;31.50;47.71;99181.84;4945670;29;20070;-70
2022/08/26 10:35:29;;;;;;;1.15;0.93;;;;;;;31.55;47.85;99177.81;4956436;28;20047;-71
2022/08/26 10:38:02;;;;;;;1.45;1.10;;;;;;;31.71;49.33;99183.28;4939478;29;20048;-73
2022/08/26 10:40:45;;;;;;;0.70;0.70;;;;;;;31.85;49.06;99178.47;4944107;29;20397;-72
2022/08/26 10:43:22;;;;;;;1.55;1.45;;;;;;;31.99;48.77;99178.00;4938930;29;20047;-71
2022/08/26 10:45:57;;;;;;;0.85;0.80;;;;;;;32.12;48.19;99175.84;4938295;29;20055;-72
2022/08/26 10:48:34;;;;;;;1.38;1.25;;;;;;;32.12;46.95;99175.84;4938190;29;20427;-71
2022/08/26 10:51:05;;;;;;;3.40;1.58;;;;;;;32.07;46.03;99178.09;4944543;28;20074;-71
2022/08/26 10:53:54;;;;;;;3.75;1.65;;;;;;;32.12;46.20;99174.03;4961397;28;20114;-72
2022/08/26 10:56:38;;;;;;;0.57;0.57;;;;;;;32.01;45.65;99173.44;4939346;28;20134;-71
2022/08/26 10:59:17;;;;;;;2.28;1.42;;;;;;;32.09;45.88;99171.69;4938249;29;20055;-71
2022/08/26 11:01:53;;;;;;;1.30;1.13;;;;;;;32.30;46.44;99163.44;4938324;29;20101;-72
2022/08/26 11:04:40;;;;;;;2.78;1.70;;;;;;;32.44;46.10;99155.03;4939958;28;20134;-71
2022/08/26 11:07:37;;;;;;;3.72;1.10;;;;;;;32.67;46.26;99153.56;4949539;29;20130;-72
2022/08/26 11:10:12;;;;;;;2.13;1.30;;;;;;;32.77;47.16;99143.75;4937747;29;20044;-72
2022/08/26 11:12:58;;;;;;;1.45;1.35;;;;;;;32.73;45.70;99150.31;4938021;29;20047;-73
2022/08/26 11:15:48;;;;;;;0.70;0.70;;;;;;;32.75;45.16;99147.53;4937901;29;20059;-71
2022/08/26 11:18:40;;;;;;;2.53;1.55;;;;;;;32.68;45.11;99131.41;4937984;29;20047;-71
2022/08/26 11:21:38;;;;;;;1.55;1.30;;;;;;;32.69;45.03;99138.38;4937648;29;20064;-71
2022/08/26 11:24:07;;;;;;;1.35;1.25;;;;;;;32.76;45.46;99133.31;4931168;29;20055;-71
2022/08/26 11:26:37;;;;;;;1.45;1.35;;;;;;;32.78;46.04;99121.59;4937772;29;20438;-71
2022/08/26 11:29:49;;;;;;;2.85;2.00;;;;;;;32.77;45.40;99125.22;4937453;29;20044;-71
2022/08/26 11:32:45;;;;;;;10.80;1.30;;;;;;;32.75;44.64;99124.56;4937740;29;20192;-72
2022/08/26 11:35:37;;;;;;;0.70;0.70;;;;;;;32.77;44.34;99112.00;4937350;29;20047;-69
2022/08/26 11:38:17;;;;;;;1.77;0.85;;;;;;;32.79;44.04;99114.50;4937451;29;20070;-71
2022/08/26 11:40:56;;;;;;;0.80;0.80;;;;;;;32.88;43.76;99117.03;4937585;29;20095;-71
2022/08/26 11:43:29;;;;;;;1.92;1.35;;;;;;;32.97;43.59;99121.38;4937220;29;20052;-71
2022/08/26 11:46:03;;;;;;;1.20;1.10;;;;;;;33.01;43.93;99117.44;4943853;28;20122;-70
2022/08/26 11:48:35;;;;;;;1.13;1.02;;;;;;;32.89;43.62;99117.88;4937302;29;20475;-72
2022/08/26 11:51:07;;;;;;;1.40;1.13;;;;;;;32.62;43.49;99110.91;4937059;29;20498;-71
2022/08/26 11:53:38;;;;;;;1.10;1.00;;;;;;;32.55;44.54;99107.22;4937575;29;20368;-71
2022/08/26 11:56:10;;;;;;;1.33;1.23;;;;;;;32.50;44.37;99114.78;4948561;28;20051;-71
2022/08/26 11:58:45;;;;;;;1.10;1.00;;;;;;;32.40;45.29;99120.13;4960078;28;20051;-72
2022/08/26 12:01:26;;;;;;;3.92;1.70;;;;;;;32.47;44.53;99117.69;4955882;29;20505;-74
2022/08/26 12:03:59;;;;;;;0.98;0.88;;;;;;;32.74;43.25;99114.97;4954766;28;20144;-73
2022/08/26 12:06:32;;;;;;;2.97;1.85;;;;;;;32.88;42.82;99110.91;4954468;29;20141;-71